Kansas City, Missouri
Current Conditions -  °F | °C
As of 5:54 AM on Tuesday 27 Jan 2015 (Local Time) from KMKC Reporting Station
Clear Clear  
Wind Chill: 32°   Ceiling: Unl
Heat Index: 32°   Visibility: 10mi
Dew Point: 29°   Wind: 0mph
Humidity: 88%   Direction: NA
Pressure: 30.1"   Gusts: NA
Location:  39.1°N, 94.58°W
Report Text: KMKC 271154Z 00000KT 10SM CLR 00/M02 A3010 RMK AO2 SLP196 T00001017 10039 21006 51008
Loading
Personal Weather Stations






























Interactive Weather Map New forecast layout! Learn more

10-Day Weather Forecast

Advertisements
Track Severe Weather on mobile